sensor_id;sensor_type;location;lat;lon;timestamp;temperature;humidity
7494;DHT22;3788;49.902;8.590;2023-11-19T00:02:21;8.50;99.90
7494;DHT22;3788;49.902;8.590;2023-11-19T00:04:48;8.50;99.90
7494;DHT22;3788;49.902;8.590;2023-11-19T00:07:14;8.50;99.90
7494;DHT22;3788;49.902;8.590;2023-11-19T00:09:42;8.50;99.90
7494;DHT22;3788;49.902;8.590;2023-11-19T00:12:09;8.50;99.90
7494;DHT22;3788;49.902;8.590;2023-11-19T00:14:36;8.50;99.90
7494;DHT22;3788;49.902;8.590;2023-11-19T00:17:02;8.60;99.90
7494;DHT22;3788;49.902;8.590;2023-11-19T00:19:30;8.60;99.90
7494;DHT22;3788;49.902;8.590;2023-11-19T00:21:56;8.60;99.90
7494;DHT22;3788;49.902;8.590;2023-11-19T00:24:28;8.60;99.90
7494;DHT22;3788;49.902;8.590;2023-11-19T00:26:56;8.60;99.90
7494;DHT22;3788;49.902;8.590;2023-11-19T00:29:22;8.60;99.90
7494;DHT22;3788;49.902;8.590;2023-11-19T00:31:49;8.60;99.90
7494;DHT22;3788;49.902;8.590;2023-11-19T00:34:15;8.60;99.90
7494;DHT22;3788;49.902;8.590;2023-11-19T00:36:47;8.60;99.90
7494;DHT22;3788;49.902;8.590;2023-11-19T00:39:13;8.60;99.90
7494;DHT22;3788;49.902;8.590;2023-11-19T00:41:41;8.60;99.90
7494;DHT22;3788;49.902;8.590;2023-11-19T00:44:09;8.70;99.90
7494;DHT22;3788;49.902;8.590;2023-11-19T00:46:35;8.70;99.90
7494;DHT22;3788;49.902;8.590;2023-11-19T00:49:02;8.70;99.90
7494;DHT22;3788;49.902;8.590;2023-11-19T00:51:29;8.70;99.90
7494;DHT22;3788;49.902;8.590;2023-11-19T00:53:56;8.70;99.90
7494;DHT22;3788;49.902;8.590;2023-11-19T00:56:23;8.70;99.90
7494;DHT22;3788;49.902;8.590;2023-11-19T00:58:50;8.70;99.90
7494;DHT22;3788;49.902;8.590;2023-11-19T01:01:18;8.70;99.90
7494;DHT22;3788;49.902;8.590;2023-11-19T01:03:44;8.70;99.90
7494;DHT22;3788;49.902;8.590;2023-11-19T01:06:11;8.80;99.90
7494;DHT22;3788;49.902;8.590;2023-11-19T01:08:39;8.80;99.90
7494;DHT22;3788;49.902;8.590;2023-11-19T01:11:05;8.80;99.90
7494;DHT22;3788;49.902;8.590;2023-11-19T01:13:32;8.80;99.90
7494;DHT22;3788;49.902;8.590;2023-11-19T01:15:59;8.80;99.90
7494;DHT22;3788;49.902;8.590;2023-11-19T01:18:29;8.90;99.90
7494;DHT22;3788;49.902;8.590;2023-11-19T01:20:55;8.90;99.90
7494;DHT22;3788;49.902;8.590;2023-11-19T01:23:22;8.90;99.90
7494;DHT22;3788;49.902;8.590;2023-11-19T01:25:48;8.90;99.90
7494;DHT22;3788;49.902;8.590;2023-11-19T01:28:15;8.90;99.90
7494;DHT22;3788;49.902;8.590;2023-11-19T01:30:42;8.90;99.90
7494;DHT22;3788;49.902;8.590;2023-11-19T01:33:08;8.90;99.90
7494;DHT22;3788;49.902;8.590;2023-11-19T01:35:36;8.90;99.90
7494;DHT22;3788;49.902;8.590;2023-11-19T01:38:03;8.90;99.90
7494;DHT22;3788;49.902;8.590;2023-11-19T01:40:29;8.90;99.90
7494;DHT22;3788;49.902;8.590;2023-11-19T01:42:56;8.90;99.90
7494;DHT22;3788;49.902;8.590;2023-11-19T01:45:28;8.90;99.90
7494;DHT22;3788;49.902;8.590;2023-11-19T01:47:56;8.90;99.90
7494;DHT22;3788;49.902;8.590;2023-11-19T01:50:23;8.90;99.90
7494;DHT22;3788;49.902;8.590;2023-11-19T01:52:52;9.00;99.90
7494;DHT22;3788;49.902;8.590;2023-11-19T01:55:20;9.00;99.90
7494;DHT22;3788;49.902;8.590;2023-11-19T01:57:48;9.00;99.90
7494;DHT22;3788;49.902;8.590;2023-11-19T02:00:15;9.00;99.90
7494;DHT22;3788;49.902;8.590;2023-11-19T02:02:43;9.10;99.90
7494;DHT22;3788;49.902;8.590;2023-11-19T02:05:11;9.10;99.90
7494;DHT22;3788;49.902;8.590;2023-11-19T02:07:38;9.10;99.90
7494;DHT22;3788;49.902;8.590;2023-11-19T02:10:07;9.10;99.90
7494;DHT22;3788;49.902;8.590;2023-11-19T02:12:38;9.20;99.90
7494;DHT22;3788;49.902;8.590;2023-11-19T02:15:08;9.20;99.90
7494;DHT22;3788;49.902;8.590;2023-11-19T02:17:35;9.20;99.90
7494;DHT22;3788;49.902;8.590;2023-11-19T02:20:03;9.20;99.90
7494;DHT22;3788;49.902;8.590;2023-11-19T02:22:31;9.20;99.90
7494;DHT22;3788;49.902;8.590;2023-11-19T02:25:00;9.20;99.90
7494;DHT22;3788;49.902;8.590;2023-11-19T02:27:50;9.30;99.90
7494;DHT22;3788;49.902;8.590;2023-11-19T02:30:20;9.30;99.90
7494;DHT22;3788;49.902;8.590;2023-11-19T02:32:52;9.40;99.90
7494;DHT22;3788;49.902;8.590;2023-11-19T02:35:18;9.40;99.90
7494;DHT22;3788;49.902;8.590;2023-11-19T02:37:47;9.40;99.90
7494;DHT22;3788;49.902;8.590;2023-11-19T02:40:13;9.40;99.90
7494;DHT22;3788;49.902;8.590;2023-11-19T02:42:41;9.40;99.90
7494;DHT22;3788;49.902;8.590;2023-11-19T02:45:09;9.50;99.90
7494;DHT22;3788;49.902;8.590;2023-11-19T02:47:39;9.50;99.90
7494;DHT22;3788;49.902;8.590;2023-11-19T02:50:08;9.50;99.90
7494;DHT22;3788;49.902;8.590;2023-11-19T02:52:39;9.60;99.90
7494;DHT22;3788;49.902;8.590;2023-11-19T02:55:06;9.60;99.90
7494;DHT22;3788;49.902;8.590;2023-11-19T02:57:35;9.60;99.90
7494;DHT22;3788;49.902;8.590;2023-11-19T03:00:05;9.60;99.90
7494;DHT22;3788;49.902;8.590;2023-11-19T03:02:39;9.60;99.90
7494;DHT22;3788;49.902;8.590;2023-11-19T03:05:10;9.60;99.90
7494;DHT22;3788;49.902;8.590;2023-11-19T03:07:37;9.60;99.90
7494;DHT22;3788;49.902;8.590;2023-11-19T03:10:04;9.70;99.90
7494;DHT22;3788;49.902;8.590;2023-11-19T03:12:32;9.70;99.90
7494;DHT22;3788;49.902;8.590;2023-11-19T03:14:58;9.70;99.90
7494;DHT22;3788;49.902;8.590;2023-11-19T03:17:26;9.70;99.90
7494;DHT22;3788;49.902;8.590;2023-11-19T03:19:53;9.70;99.90
7494;DHT22;3788;49.902;8.590;2023-11-19T03:22:19;9.80;99.90
7494;DHT22;3788;49.902;8.590;2023-11-19T03:24:47;9.80;99.90
7494;DHT22;3788;49.902;8.590;2023-11-19T03:27:13;9.80;99.90
7494;DHT22;3788;49.902;8.590;2023-11-19T03:29:40;9.80;99.90
7494;DHT22;3788;49.902;8.590;2023-11-19T03:32:06;9.80;99.90
7494;DHT22;3788;49.902;8.590;2023-11-19T03:34:34;9.80;99.90
7494;DHT22;3788;49.902;8.590;2023-11-19T03:37:01;9.80;99.90
7494;DHT22;3788;49.902;8.590;2023-11-19T03:39:28;9.80;99.90
7494;DHT22;3788;49.902;8.590;2023-11-19T03:41:55;9.80;99.90
7494;DHT22;3788;49.902;8.590;2023-11-19T03:44:21;9.70;99.90
7494;DHT22;3788;49.902;8.590;2023-11-19T03:46:48;9.70;99.90
7494;DHT22;3788;49.902;8.590;2023-11-19T03:49:15;9.70;99.90
7494;DHT22;3788;49.902;8.590;2023-11-19T03:51:43;9.70;99.90
7494;DHT22;3788;49.902;8.590;2023-11-19T03:54:09;9.70;99.90
7494;DHT22;3788;49.902;8.590;2023-11-19T03:56:37;9.70;99.90
7494;DHT22;3788;49.902;8.590;2023-11-19T03:59:03;9.70;99.90
7494;DHT22;3788;49.902;8.590;2023-11-19T04:01:30;9.70;99.90
7494;DHT22;3788;49.902;8.590;2023-11-19T04:03:57;9.70;99.90
7494;DHT22;3788;49.902;8.590;2023-11-19T04:06:25;9.80;99.90
7494;DHT22;3788;49.902;8.590;2023-11-19T04:08:53;9.80;99.90
7494;DHT22;3788;49.902;8.590;2023-11-19T04:11:20;9.80;99.90
7494;DHT22;3788;49.902;8.590;2023-11-19T04:13:47;9.80;99.90
7494;DHT22;3788;49.902;8.590;2023-11-19T04:16:14;9.80;99.90
7494;DHT22;3788;49.902;8.590;2023-11-19T04:18:41;9.80;99.90
7494;DHT22;3788;49.902;8.590;2023-11-19T04:21:08;9.80;99.90
7494;DHT22;3788;49.902;8.590;2023-11-19T04:23:34;9.80;99.90
7494;DHT22;3788;49.902;8.590;2023-11-19T04:26:04;9.80;99.90
7494;DHT22;3788;49.902;8.590;2023-11-19T04:28:31;9.80;99.90
7494;DHT22;3788;49.902;8.590;2023-11-19T04:30:58;9.80;99.90
7494;DHT22;3788;49.902;8.590;2023-11-19T04:33:25;9.80;99.90
7494;DHT22;3788;49.902;8.590;2023-11-19T04:35:51;9.90;99.90
7494;DHT22;3788;49.902;8.590;2023-11-19T04:38:18;9.90;99.90
7494;DHT22;3788;49.902;8.590;2023-11-19T04:40:45;9.90;99.90
7494;DHT22;3788;49.902;8.590;2023-11-19T04:43:13;9.90;99.90
7494;DHT22;3788;49.902;8.590;2023-11-19T04:45:41;9.90;99.90
7494;DHT22;3788;49.902;8.590;2023-11-19T04:48:07;9.90;99.90
7494;DHT22;3788;49.902;8.590;2023-11-19T04:50:35;10.00;99.90
7494;DHT22;3788;49.902;8.590;2023-11-19T04:53:01;10.00;99.90
7494;DHT22;3788;49.902;8.590;2023-11-19T04:55:28;10.00;99.90
7494;DHT22;3788;49.902;8.590;2023-11-19T04:57:55;10.00;99.90
7494;DHT22;3788;49.902;8.590;2023-11-19T05:00:23;10.00;99.90
7494;DHT22;3788;49.902;8.590;2023-11-19T05:02:50;10.00;99.90
7494;DHT22;3788;49.902;8.590;2023-11-19T05:05:16;10.10;99.90
7494;DHT22;3788;49.902;8.590;2023-11-19T05:07:43;10.10;99.90
7494;DHT22;3788;49.902;8.590;2023-11-19T05:10:10;10.10;99.90
7494;DHT22;3788;49.902;8.590;2023-11-19T05:12:37;10.10;99.90
7494;DHT22;3788;49.902;8.590;2023-11-19T05:15:05;10.10;99.90
7494;DHT22;3788;49.902;8.590;2023-11-19T05:17:33;10.10;99.90
7494;DHT22;3788;49.902;8.590;2023-11-19T05:20:00;10.20;99.90
7494;DHT22;3788;49.902;8.590;2023-11-19T05:22:27;10.20;99.90
7494;DHT22;3788;49.902;8.590;2023-11-19T05:24:54;10.20;99.90
7494;DHT22;3788;49.902;8.590;2023-11-19T05:27:21;10.20;99.90
7494;DHT22;3788;49.902;8.590;2023-11-19T05:29:49;10.20;99.90
7494;DHT22;3788;49.902;8.590;2023-11-19T05:32:15;10.20;99.90
7494;DHT22;3788;49.902;8.590;2023-11-19T05:34:43;10.20;99.90
7494;DHT22;3788;49.902;8.590;2023-11-19T05:37:10;10.30;99.90
7494;DHT22;3788;49.902;8.590;2023-11-19T05:39:37;10.30;99.90
7494;DHT22;3788;49.902;8.590;2023-11-19T05:42:04;10.30;99.90
7494;DHT22;3788;49.902;8.590;2023-11-19T05:44:31;10.30;99.90
7494;DHT22;3788;49.902;8.590;2023-11-19T05:46:57;10.30;99.90
7494;DHT22;3788;49.902;8.590;2023-11-19T05:49:24;10.40;99.90
7494;DHT22;3788;49.902;8.590;2023-11-19T05:51:52;10.40;99.90
7494;DHT22;3788;49.902;8.590;2023-11-19T05:54:21;10.40;99.90
7494;DHT22;3788;49.902;8.590;2023-11-19T05:56:49;10.40;99.90
7494;DHT22;3788;49.902;8.590;2023-11-19T05:59:16;10.40;99.90
7494;DHT22;3788;49.902;8.590;2023-11-19T06:01:43;10.40;99.90
7494;DHT22;3788;49.902;8.590;2023-11-19T06:04:10;10.40;99.90
7494;DHT22;3788;49.902;8.590;2023-11-19T06:06:36;10.40;99.90
7494;DHT22;3788;49.902;8.590;2023-11-19T06:09:05;10.40;99.90
7494;DHT22;3788;49.902;8.590;2023-11-19T06:11:33;10.50;99.90
7494;DHT22;3788;49.902;8.590;2023-11-19T06:14:01;10.50;99.90
7494;DHT22;3788;49.902;8.590;2023-11-19T06:16:28;10.50;99.90
7494;DHT22;3788;49.902;8.590;2023-11-19T06:18:55;10.50;99.90
7494;DHT22;3788;49.902;8.590;2023-11-19T06:21:22;10.50;99.90
7494;DHT22;3788;49.902;8.590;2023-11-19T06:23:48;10.50;99.90
7494;DHT22;3788;49.902;8.590;2023-11-19T06:26:18;10.50;99.90
7494;DHT22;3788;49.902;8.590;2023-11-19T06:28:44;10.50;99.90
7494;DHT22;3788;49.902;8.590;2023-11-19T06:31:11;10.60;99.90
7494;DHT22;3788;49.902;8.590;2023-11-19T06:33:41;10.60;99.90
7494;DHT22;3788;49.902;8.590;2023-11-19T06:36:08;10.60;99.90
7494;DHT22;3788;49.902;8.590;2023-11-19T06:38:35;10.60;99.90
7494;DHT22;3788;49.902;8.590;2023-11-19T06:41:02;10.60;99.90
7494;DHT22;3788;49.902;8.590;2023-11-19T06:43:33;10.60;99.90
7494;DHT22;3788;49.902;8.590;2023-11-19T06:46:00;10.60;99.90
7494;DHT22;3788;49.902;8.590;2023-11-19T06:48:27;10.60;99.90
7494;DHT22;3788;49.902;8.590;2023-11-19T06:50:53;10.70;99.90
7494;DHT22;3788;49.902;8.590;2023-11-19T06:53:20;10.70;99.90
7494;DHT22;3788;49.902;8.590;2023-11-19T06:55:47;10.70;99.90
7494;DHT22;3788;49.902;8.590;2023-11-19T06:58:13;10.70;99.90
7494;DHT22;3788;49.902;8.590;2023-11-19T07:00:41;10.70;99.90
7494;DHT22;3788;49.902;8.590;2023-11-19T07:03:08;10.70;99.90
7494;DHT22;3788;49.902;8.590;2023-11-19T07:05:36;10.80;99.90
7494;DHT22;3788;49.902;8.590;2023-11-19T07:08:03;10.80;99.90
7494;DHT22;3788;49.902;8.590;2023-11-19T07:10:30;10.80;99.90
7494;DHT22;3788;49.902;8.590;2023-11-19T07:12:57;10.80;99.90
7494;DHT22;3788;49.902;8.590;2023-11-19T07:15:23;10.90;99.90
7494;DHT22;3788;49.902;8.590;2023-11-19T07:17:51;10.90;99.90
7494;DHT22;3788;49.902;8.590;2023-11-19T07:20:19;10.90;99.90
7494;DHT22;3788;49.902;8.590;2023-11-19T07:22:46;10.90;99.90
7494;DHT22;3788;49.902;8.590;2023-11-19T07:25:14;10.80;99.90
7494;DHT22;3788;49.902;8.590;2023-11-19T07:27:41;10.90;99.90
7494;DHT22;3788;49.902;8.590;2023-11-19T07:30:08;10.90;99.90
7494;DHT22;3788;49.902;8.590;2023-11-19T07:32:35;10.90;99.90
7494;DHT22;3788;49.902;8.590;2023-11-19T07:35:06;10.90;99.90
7494;DHT22;3788;49.902;8.590;2023-11-19T07:37:33;10.90;99.90
7494;DHT22;3788;49.902;8.590;2023-11-19T07:39:59;10.90;99.90
7494;DHT22;3788;49.902;8.590;2023-11-19T07:42:26;10.90;99.90
7494;DHT22;3788;49.902;8.590;2023-11-19T07:44:53;10.90;99.90
7494;DHT22;3788;49.902;8.590;2023-11-19T07:47:20;10.90;99.90
7494;DHT22;3788;49.902;8.590;2023-11-19T07:49:48;11.00;99.90
7494;DHT22;3788;49.902;8.590;2023-11-19T07:52:16;11.10;99.90
7494;DHT22;3788;49.902;8.590;2023-11-19T07:54:43;11.20;99.90
7494;DHT22;3788;49.902;8.590;2023-11-19T07:57:09;11.30;99.90
7494;DHT22;3788;49.902;8.590;2023-11-19T07:59:36;11.60;99.90
7494;DHT22;3788;49.902;8.590;2023-11-19T08:02:03;11.90;99.90
7494;DHT22;3788;49.902;8.590;2023-11-19T08:04:30;12.20;99.90
7494;DHT22;3788;49.902;8.590;2023-11-19T08:06:57;12.50;99.90
7494;DHT22;3788;49.902;8.590;2023-11-19T08:09:25;12.70;99.90
7494;DHT22;3788;49.902;8.590;2023-11-19T08:11:52;12.70;99.90
7494;DHT22;3788;49.902;8.590;2023-11-19T08:14:20;12.80;99.90
7494;DHT22;3788;49.902;8.590;2023-11-19T08:16:47;13.00;99.90
7494;DHT22;3788;49.902;8.590;2023-11-19T08:19:13;13.10;99.90
7494;DHT22;3788;49.902;8.590;2023-11-19T08:21:40;13.10;99.90
7494;DHT22;3788;49.902;8.590;2023-11-19T08:24:07;13.20;99.90
7494;DHT22;3788;49.902;8.590;2023-11-19T08:26:35;13.40;99.90
7494;DHT22;3788;49.902;8.590;2023-11-19T08:29:02;13.60;99.90
7494;DHT22;3788;49.902;8.590;2023-11-19T08:31:29;13.90;99.90
7494;DHT22;3788;49.902;8.590;2023-11-19T08:33:56;14.10;99.90
7494;DHT22;3788;49.902;8.590;2023-11-19T08:36:22;14.30;99.90
7494;DHT22;3788;49.902;8.590;2023-11-19T08:38:49;14.60;99.90
7494;DHT22;3788;49.902;8.590;2023-11-19T08:41:17;14.90;99.90
7494;DHT22;3788;49.902;8.590;2023-11-19T08:43:46;15.10;99.90
7494;DHT22;3788;49.902;8.590;2023-11-19T08:46:12;14.90;99.90
7494;DHT22;3788;49.902;8.590;2023-11-19T08:48:39;14.60;99.90
7494;DHT22;3788;49.902;8.590;2023-11-19T08:51:06;14.10;99.90
7494;DHT22;3788;49.902;8.590;2023-11-19T08:53:33;13.70;99.90
7494;DHT22;3788;49.902;8.590;2023-11-19T08:55:59;13.40;99.90
7494;DHT22;3788;49.902;8.590;2023-11-19T08:58:28;13.20;99.90
7494;DHT22;3788;49.902;8.590;2023-11-19T09:00:56;13.00;99.90
7494;DHT22;3788;49.902;8.590;2023-11-19T09:03:22;12.80;99.90
7494;DHT22;3788;49.902;8.590;2023-11-19T09:05:51;12.80;99.90
7494;DHT22;3788;49.902;8.590;2023-11-19T09:08:17;12.70;99.90
7494;DHT22;3788;49.902;8.590;2023-11-19T09:10:44;12.70;99.90
7494;DHT22;3788;49.902;8.590;2023-11-19T09:13:11;12.70;99.90
7494;DHT22;3788;49.902;8.590;2023-11-19T09:15:38;12.70;99.90
7494;DHT22;3788;49.902;8.590;2023-11-19T09:18:06;12.70;99.90
7494;DHT22;3788;49.902;8.590;2023-11-19T09:20:32;12.80;99.90
7494;DHT22;3788;49.902;8.590;2023-11-19T09:23:03;12.80;99.90
7494;DHT22;3788;49.902;8.590;2023-11-19T09:25:30;12.70;99.90
7494;DHT22;3788;49.902;8.590;2023-11-19T09:27:57;12.70;99.90
7494;DHT22;3788;49.902;8.590;2023-11-19T09:30:24;12.70;99.90
7494;DHT22;3788;49.902;8.590;2023-11-19T09:32:50;12.70;99.90
7494;DHT22;3788;49.902;8.590;2023-11-19T09:35:18;12.70;99.90
7494;DHT22;3788;49.902;8.590;2023-11-19T09:37:45;12.70;99.90
7494;DHT22;3788;49.902;8.590;2023-11-19T09:40:12;12.70;99.90
7494;DHT22;3788;49.902;8.590;2023-11-19T09:42:43;12.70;99.90
7494;DHT22;3788;49.902;8.590;2023-11-19T09:45:13;12.70;99.90
7494;DHT22;3788;49.902;8.590;2023-11-19T09:47:40;12.70;99.90
7494;DHT22;3788;49.902;8.590;2023-11-19T09:50:08;12.70;99.90
7494;DHT22;3788;49.902;8.590;2023-11-19T09:52:36;12.70;99.90
7494;DHT22;3788;49.902;8.590;2023-11-19T09:55:03;12.70;99.90
7494;DHT22;3788;49.902;8.590;2023-11-19T09:57:32;12.80;99.90
7494;DHT22;3788;49.902;8.590;2023-11-19T09:59:59;12.80;99.90
7494;DHT22;3788;49.902;8.590;2023-11-19T10:02:27;12.80;99.90
7494;DHT22;3788;49.902;8.590;2023-11-19T10:04:57;12.80;99.90
7494;DHT22;3788;49.902;8.590;2023-11-19T10:07:25;12.80;99.90
7494;DHT22;3788;49.902;8.590;2023-11-19T10:09:53;12.80;99.90
7494;DHT22;3788;49.902;8.590;2023-11-19T10:12:19;12.80;99.90
7494;DHT22;3788;49.902;8.590;2023-11-19T10:14:48;12.80;99.90
7494;DHT22;3788;49.902;8.590;2023-11-19T10:17:16;12.80;99.90
7494;DHT22;3788;49.902;8.590;2023-11-19T10:19:43;12.90;99.90
7494;DHT22;3788;49.902;8.590;2023-11-19T10:22:10;12.90;99.90
7494;DHT22;3788;49.902;8.590;2023-11-19T10:24:37;13.00;99.90
7494;DHT22;3788;49.902;8.590;2023-11-19T10:27:08;13.00;99.90
7494;DHT22;3788;49.902;8.590;2023-11-19T10:29:36;13.10;99.90
7494;DHT22;3788;49.902;8.590;2023-11-19T10:32:03;13.10;99.90
7494;DHT22;3788;49.902;8.590;2023-11-19T10:34:30;13.10;99.90
7494;DHT22;3788;49.902;8.590;2023-11-19T10:36:57;13.10;99.90
7494;DHT22;3788;49.902;8.590;2023-11-19T10:39:23;13.10;99.90
7494;DHT22;3788;49.902;8.590;2023-11-19T10:41:54;13.10;99.90
7494;DHT22;3788;49.902;8.590;2023-11-19T10:44:32;13.20;99.90
7494;DHT22;3788;49.902;8.590;2023-11-19T10:47:01;13.20;99.90
7494;DHT22;3788;49.902;8.590;2023-11-19T10:49:28;13.20;99.90
7494;DHT22;3788;49.902;8.590;2023-11-19T10:51:55;13.30;99.90
7494;DHT22;3788;49.902;8.590;2023-11-19T10:54:24;13.30;99.90
7494;DHT22;3788;49.902;8.590;2023-11-19T10:56:55;13.40;99.90
7494;DHT22;3788;49.902;8.590;2023-11-19T10:59:22;13.50;99.90
7494;DHT22;3788;49.902;8.590;2023-11-19T11:01:53;13.60;99.90
7494;DHT22;3788;49.902;8.590;2023-11-19T11:04:23;13.60;99.90
7494;DHT22;3788;49.902;8.590;2023-11-19T11:06:51;13.70;99.90
7494;DHT22;3788;49.902;8.590;2023-11-19T11:09:20;13.80;99.90
7494;DHT22;3788;49.902;8.590;2023-11-19T11:11:50;13.80;99.90
7494;DHT22;3788;49.902;8.590;2023-11-19T11:14:20;13.90;99.90
7494;DHT22;3788;49.902;8.590;2023-11-19T11:16:48;13.90;99.90
7494;DHT22;3788;49.902;8.590;2023-11-19T11:19:17;13.90;99.90
7494;DHT22;3788;49.902;8.590;2023-11-19T11:21:49;14.00;99.90
7494;DHT22;3788;49.902;8.590;2023-11-19T11:24:32;14.20;99.90
7494;DHT22;3788;49.902;8.590;2023-11-19T11:27:14;14.30;99.90
7494;DHT22;3788;49.902;8.590;2023-11-19T11:29:50;14.40;99.90
7494;DHT22;3788;49.902;8.590;2023-11-19T11:32:37;14.60;99.90
7494;DHT22;3788;49.902;8.590;2023-11-19T11:35:17;14.80;99.90
7494;DHT22;3788;49.902;8.590;2023-11-19T11:37:53;14.90;99.90
7494;DHT22;3788;49.902;8.590;2023-11-19T11:40:22;14.90;99.90
7494;DHT22;3788;49.902;8.590;2023-11-19T11:42:49;14.90;99.90
7494;DHT22;3788;49.902;8.590;2023-11-19T11:45:17;14.90;99.90
7494;DHT22;3788;49.902;8.590;2023-11-19T11:48:10;14.90;99.90
7494;DHT22;3788;49.902;8.590;2023-11-19T11:50:49;14.90;99.90
7494;DHT22;3788;49.902;8.590;2023-11-19T11:53:17;14.90;99.90
7494;DHT22;3788;49.902;8.590;2023-11-19T11:55:58;14.90;99.90
7494;DHT22;3788;49.902;8.590;2023-11-19T11:58:29;14.90;99.90
7494;DHT22;3788;49.902;8.590;2023-11-19T12:00:58;14.80;99.90
7494;DHT22;3788;49.902;8.590;2023-11-19T12:03:28;14.90;99.90
7494;DHT22;3788;49.902;8.590;2023-11-19T12:05:57;14.90;99.90
7494;DHT22;3788;49.902;8.590;2023-11-19T12:08:29;15.00;99.90
7494;DHT22;3788;49.902;8.590;2023-11-19T12:10:57;15.10;99.90
7494;DHT22;3788;49.902;8.590;2023-11-19T12:13:56;15.20;99.90
7494;DHT22;3788;49.902;8.590;2023-11-19T12:16:24;15.30;99.90
7494;DHT22;3788;49.902;8.590;2023-11-19T12:18:53;15.40;99.90
7494;DHT22;3788;49.902;8.590;2023-11-19T12:21:31;15.50;99.90
7494;DHT22;3788;49.902;8.590;2023-11-19T12:23:59;15.50;99.90
7494;DHT22;3788;49.902;8.590;2023-11-19T12:26:32;15.50;99.90
7494;DHT22;3788;49.902;8.590;2023-11-19T12:29:00;15.50;99.90
7494;DHT22;3788;49.902;8.590;2023-11-19T12:31:29;15.50;99.30
7494;DHT22;3788;49.902;8.590;2023-11-19T12:33:55;15.50;98.60
7494;DHT22;3788;49.902;8.590;2023-11-19T12:36:22;15.50;97.90
7494;DHT22;3788;49.902;8.590;2023-11-19T12:38:50;15.50;97.00
7494;DHT22;3788;49.902;8.590;2023-11-19T12:41:17;15.50;96.20
7494;DHT22;3788;49.902;8.590;2023-11-19T12:43:47;15.40;95.70
7494;DHT22;3788;49.902;8.590;2023-11-19T12:46:17;15.40;95.60
7494;DHT22;3788;49.902;8.590;2023-11-19T12:48:45;15.40;95.80
7494;DHT22;3788;49.902;8.590;2023-11-19T12:51:12;15.40;95.40
7494;DHT22;3788;49.902;8.590;2023-11-19T12:53:47;15.40;95.30
7494;DHT22;3788;49.902;8.590;2023-11-19T12:56:16;15.40;94.90
7494;DHT22;3788;49.902;8.590;2023-11-19T12:58:43;15.40;94.40
7494;DHT22;3788;49.902;8.590;2023-11-19T13:01:10;15.50;93.70
7494;DHT22;3788;49.902;8.590;2023-11-19T13:03:41;15.40;93.60
7494;DHT22;3788;49.902;8.590;2023-11-19T13:06:10;15.40;93.80
7494;DHT22;3788;49.902;8.590;2023-11-19T13:08:38;15.40;93.50
7494;DHT22;3788;49.902;8.590;2023-11-19T13:11:05;15.40;93.90
7494;DHT22;3788;49.902;8.590;2023-11-19T13:13:53;15.30;93.80
7494;DHT22;3788;49.902;8.590;2023-11-19T13:16:20;15.20;93.80
7494;DHT22;3788;49.902;8.590;2023-11-19T13:18:47;15.10;94.10
7494;DHT22;3788;49.902;8.590;2023-11-19T13:21:14;15.10;94.40
7494;DHT22;3788;49.902;8.590;2023-11-19T13:23:41;15.10;94.70
7494;DHT22;3788;49.902;8.590;2023-11-19T13:26:08;15.10;94.90
7494;DHT22;3788;49.902;8.590;2023-11-19T13:28:36;15.20;95.00
7494;DHT22;3788;49.902;8.590;2023-11-19T13:31:03;15.20;95.10
7494;DHT22;3788;49.902;8.590;2023-11-19T13:33:29;15.30;95.10
7494;DHT22;3788;49.902;8.590;2023-11-19T13:35:57;15.30;95.00
7494;DHT22;3788;49.902;8.590;2023-11-19T13:38:24;15.40;95.20
7494;DHT22;3788;49.902;8.590;2023-11-19T13:40:51;15.40;95.40
7494;DHT22;3788;49.902;8.590;2023-11-19T13:43:17;15.40;95.40
7494;DHT22;3788;49.902;8.590;2023-11-19T13:45:46;15.50;95.20
7494;DHT22;3788;49.902;8.590;2023-11-19T13:48:12;15.50;95.30
7494;DHT22;3788;49.902;8.590;2023-11-19T13:50:39;15.50;95.20
7494;DHT22;3788;49.902;8.590;2023-11-19T13:53:05;15.40;95.00
7494;DHT22;3788;49.902;8.590;2023-11-19T13:55:32;15.30;95.40
7494;DHT22;3788;49.902;8.590;2023-11-19T13:57:59;15.10;95.60
7494;DHT22;3788;49.902;8.590;2023-11-19T14:00:26;15.00;95.90
7494;DHT22;3788;49.902;8.590;2023-11-19T14:02:54;15.00;95.90
7494;DHT22;3788;49.902;8.590;2023-11-19T14:05:20;14.90;95.90
7494;DHT22;3788;49.902;8.590;2023-11-19T14:07:48;14.90;96.00
7494;DHT22;3788;49.902;8.590;2023-11-19T14:10:17;14.90;96.30
7494;DHT22;3788;49.902;8.590;2023-11-19T14:12:44;14.80;96.50
7494;DHT22;3788;49.902;8.590;2023-11-19T14:15:11;14.80;96.50
7494;DHT22;3788;49.902;8.590;2023-11-19T14:17:39;14.70;96.50
7494;DHT22;3788;49.902;8.590;2023-11-19T14:20:08;14.70;96.70
7494;DHT22;3788;49.902;8.590;2023-11-19T14:22:38;14.60;96.80
7494;DHT22;3788;49.902;8.590;2023-11-19T14:25:05;14.60;96.80
7494;DHT22;3788;49.902;8.590;2023-11-19T14:27:35;14.60;96.70
7494;DHT22;3788;49.902;8.590;2023-11-19T14:30:02;14.60;96.40
7494;DHT22;3788;49.902;8.590;2023-11-19T14:32:28;14.60;95.90
7494;DHT22;3788;49.902;8.590;2023-11-19T14:34:55;14.60;95.80
7494;DHT22;3788;49.902;8.590;2023-11-19T14:37:23;14.70;95.20
7494;DHT22;3788;49.902;8.590;2023-11-19T14:39:50;14.70;95.10
7494;DHT22;3788;49.902;8.590;2023-11-19T14:42:17;14.70;95.10
7494;DHT22;3788;49.902;8.590;2023-11-19T14:44:44;14.60;95.00
7494;DHT22;3788;49.902;8.590;2023-11-19T14:47:10;14.60;95.20
7494;DHT22;3788;49.902;8.590;2023-11-19T14:49:37;14.60;95.40
7494;DHT22;3788;49.902;8.590;2023-11-19T14:52:04;14.50;95.40
7494;DHT22;3788;49.902;8.590;2023-11-19T14:54:32;14.50;95.70
7494;DHT22;3788;49.902;8.590;2023-11-19T14:56:59;14.40;96.10
7494;DHT22;3788;49.902;8.590;2023-11-19T14:59:26;14.40;95.80
7494;DHT22;3788;49.902;8.590;2023-11-19T15:01:53;14.40;95.10
7494;DHT22;3788;49.902;8.590;2023-11-19T15:04:20;14.40;94.60
7494;DHT22;3788;49.902;8.590;2023-11-19T15:06:46;14.40;94.50
7494;DHT22;3788;49.902;8.590;2023-11-19T15:09:13;14.30;94.70
7494;DHT22;3788;49.902;8.590;2023-11-19T15:11:44;14.20;95.00
7494;DHT22;3788;49.902;8.590;2023-11-19T15:14:11;14.20;95.00
7494;DHT22;3788;49.902;8.590;2023-11-19T15:16:40;14.10;95.10
7494;DHT22;3788;49.902;8.590;2023-11-19T15:19:07;14.00;95.20
7494;DHT22;3788;49.902;8.590;2023-11-19T15:21:34;13.90;95.30
7494;DHT22;3788;49.902;8.590;2023-11-19T15:24:00;13.80;95.40
7494;DHT22;3788;49.902;8.590;2023-11-19T15:26:29;13.70;95.70
7494;DHT22;3788;49.902;8.590;2023-11-19T15:28:57;13.60;95.80
7494;DHT22;3788;49.902;8.590;2023-11-19T15:31:24;13.50;96.00
7494;DHT22;3788;49.902;8.590;2023-11-19T15:33:51;13.40;96.30
7494;DHT22;3788;49.902;8.590;2023-11-19T15:36:18;13.40;96.00
7494;DHT22;3788;49.902;8.590;2023-11-19T15:38:45;13.30;96.00
7494;DHT22;3788;49.902;8.590;2023-11-19T15:41:12;13.30;96.00
7494;DHT22;3788;49.902;8.590;2023-11-19T15:43:39;13.20;95.90
7494;DHT22;3788;49.902;8.590;2023-11-19T15:46:07;13.20;95.80
7494;DHT22;3788;49.902;8.590;2023-11-19T15:48:34;13.10;95.80
7494;DHT22;3788;49.902;8.590;2023-11-19T15:51:01;13.10;95.80
7494;DHT22;3788;49.902;8.590;2023-11-19T15:53:28;13.10;95.90
7494;DHT22;3788;49.902;8.590;2023-11-19T15:55:56;13.00;95.80
7494;DHT22;3788;49.902;8.590;2023-11-19T15:58:22;13.00;95.80
7494;DHT22;3788;49.902;8.590;2023-11-19T16:00:49;13.00;95.80
7494;DHT22;3788;49.902;8.590;2023-11-19T16:03:17;13.00;95.70
7494;DHT22;3788;49.902;8.590;2023-11-19T16:05:44;13.00;95.70
7494;DHT22;3788;49.902;8.590;2023-11-19T16:08:11;12.90;95.80
7494;DHT22;3788;49.902;8.590;2023-11-19T16:10:37;12.90;95.80
7494;DHT22;3788;49.902;8.590;2023-11-19T16:13:08;12.90;95.70